createdAt,value
2023-08-11T00:01:08.700Z,60.46
2023-08-11T00:03:37.012Z,60.50
2023-08-11T00:06:08.619Z,60.52
2023-08-11T00:08:41.151Z,60.54
2023-08-11T00:11:09.870Z,60.60
2023-08-11T00:13:38.115Z,60.62
2023-08-11T00:16:06.290Z,60.56
2023-08-11T00:18:34.387Z,60.56
2023-08-11T00:21:03.732Z,60.56
2023-08-11T00:23:31.909Z,60.57
2023-08-11T00:26:00.058Z,60.59
2023-08-11T00:28:28.285Z,60.66
2023-08-11T00:30:56.613Z,60.75
2023-08-11T00:33:24.917Z,60.74
2023-08-11T00:35:53.116Z,60.72
2023-08-11T00:38:24.986Z,60.66
2023-08-11T00:40:53.148Z,60.58
2023-08-11T00:43:21.173Z,60.57
2023-08-11T00:45:50.535Z,60.49
2023-08-11T00:48:18.775Z,60.41
2023-08-11T00:50:47.161Z,60.32
2023-08-11T00:53:15.370Z,60.31
2023-08-11T00:55:44.480Z,60.32
2023-08-11T00:58:12.857Z,60.28
2023-08-11T01:00:40.926Z,60.22
2023-08-11T01:03:09.746Z,60.19
2023-08-11T01:05:46.161Z,60.22
2023-08-11T01:09:02.634Z,60.18
2023-08-11T01:11:48.656Z,60.14
2023-08-11T01:14:32.333Z,60.07
2023-08-11T01:17:03.615Z,60.13
2023-08-11T01:19:36.810Z,60.16
2023-08-11T01:22:11.427Z,60.21
2023-08-11T01:24:39.767Z,60.18
2023-08-11T01:27:08.714Z,60.18
2023-08-11T01:29:36.976Z,60.05
2023-08-11T01:32:06.435Z,59.90
2023-08-11T01:34:34.805Z,59.86
2023-08-11T01:37:05.587Z,59.76
2023-08-11T01:39:34.404Z,59.75
2023-08-11T01:42:02.691Z,59.69
2023-08-11T01:44:31.232Z,59.66
2023-08-11T01:46:59.860Z,59.69
2023-08-11T01:49:28.489Z,59.74
2023-08-11T01:51:56.899Z,59.75
2023-08-11T01:54:25.236Z,59.78
2023-08-11T01:56:55.843Z,59.87
2023-08-11T01:59:23.864Z,59.88
2023-08-11T02:01:51.968Z,59.88
2023-08-11T02:04:22.438Z,59.85
2023-08-11T02:06:50.442Z,59.79
2023-08-11T02:09:18.557Z,59.83
2023-08-11T02:11:46.704Z,59.83
2023-08-11T02:14:14.752Z,59.85
2023-08-11T02:16:42.845Z,59.88
2023-08-11T02:19:11.416Z,59.88
2023-08-11T02:21:40.303Z,59.88
2023-08-11T02:24:08.364Z,59.94
2023-08-11T02:26:36.543Z,59.95
2023-08-11T02:29:05.082Z,59.90
2023-08-11T02:31:34.158Z,59.86
2023-08-11T02:34:02.196Z,59.83
2023-08-11T02:36:30.283Z,59.83
2023-08-11T02:38:58.300Z,59.82
2023-08-11T02:41:27.225Z,59.82
2023-08-11T02:43:55.280Z,59.82
2023-08-11T02:46:24.019Z,59.85
2023-08-11T02:48:52.088Z,59.93
2023-08-11T02:51:20.531Z,59.95
2023-08-11T02:53:48.657Z,60.00
2023-08-11T02:56:17.360Z,60.09
2023-08-11T02:58:45.505Z,60.06
2023-08-11T03:01:13.617Z,60.08
2023-08-11T03:03:44.051Z,60.04
2023-08-11T03:06:12.834Z,60.06
2023-08-11T03:08:41.630Z,60.12
2023-08-11T03:11:10.192Z,60.15
2023-08-11T03:13:38.782Z,60.19
2023-08-11T03:16:07.073Z,60.22
2023-08-11T03:18:36.676Z,60.15
2023-08-11T03:21:18.776Z,60.11
2023-08-11T03:23:48.686Z,60.05
2023-08-11T03:26:17.169Z,59.94
2023-08-11T03:28:45.391Z,59.94
2023-08-11T03:31:14.632Z,59.95
2023-08-11T03:33:44.687Z,59.97
2023-08-11T03:36:15.419Z,60.02
2023-08-11T03:38:44.648Z,60.03
2023-08-11T03:41:13.285Z,60.04
2023-08-11T03:43:41.428Z,60.12
2023-08-11T03:46:09.455Z,60.20
2023-08-11T03:48:38.387Z,60.20
2023-08-11T03:51:08.242Z,60.23
2023-08-11T03:53:37.723Z,60.25
2023-08-11T03:56:08.992Z,60.28
2023-08-11T03:58:40.273Z,60.39
2023-08-11T04:01:09.446Z,60.44
2023-08-11T04:03:38.060Z,60.48
2023-08-11T04:06:06.366Z,60.47
2023-08-11T04:08:34.841Z,60.44
2023-08-11T04:11:02.933Z,60.46
2023-08-11T04:13:30.988Z,60.46
2023-08-11T04:16:01.330Z,60.46
2023-08-11T04:18:29.368Z,60.48
2023-08-11T04:20:57.630Z,60.45
2023-08-11T04:23:25.727Z,60.51
2023-08-11T04:25:55.154Z,60.50
2023-08-11T04:28:23.556Z,60.45
2023-08-11T04:30:51.755Z,60.43
2023-08-11T04:33:20.184Z,60.37
2023-08-11T04:35:50.764Z,60.38
2023-08-11T04:38:19.399Z,60.29
2023-08-11T04:40:51.673Z,60.26
2023-08-11T04:43:20.674Z,60.22
2023-08-11T04:45:50.368Z,60.15
2023-08-11T04:48:19.070Z,60.05
2023-08-11T04:50:54.021Z,60.00
2023-08-11T04:53:22.668Z,59.91
2023-08-11T04:55:52.393Z,59.79
2023-08-11T04:58:21.628Z,59.71
2023-08-11T05:00:50.059Z,59.75
2023-08-11T05:03:18.447Z,59.75
2023-08-11T05:05:46.744Z,59.82
2023-08-11T05:08:14.795Z,59.88
2023-08-11T05:10:42.857Z,59.71
2023-08-11T05:13:10.979Z,59.67
2023-08-11T05:15:40.126Z,59.75
2023-08-11T05:18:08.346Z,59.90
2023-08-11T05:20:36.401Z,59.91
2023-08-11T05:23:05.315Z,59.94
2023-08-11T05:25:33.413Z,59.95
2023-08-11T05:28:01.437Z,59.81
2023-08-11T05:30:29.585Z,59.70
2023-08-11T05:32:58.275Z,59.69
2023-08-11T05:35:27.770Z,59.16
2023-08-11T05:37:56.135Z,58.65
2023-08-11T05:40:24.513Z,58.70
2023-08-11T05:42:52.618Z,58.88
2023-08-11T05:45:20.787Z,58.87
2023-08-11T05:47:48.868Z,59.01
2023-08-11T05:50:16.920Z,59.24
2023-08-11T05:52:44.959Z,59.40
2023-08-11T05:55:13.048Z,59.69
2023-08-11T05:57:41.095Z,59.95
2023-08-11T06:00:10.408Z,60.23
2023-08-11T06:02:41.454Z,60.30
2023-08-11T06:05:09.652Z,59.86
2023-08-11T06:07:37.750Z,60.60
2023-08-11T06:10:06.707Z,60.94
2023-08-11T06:12:34.766Z,61.04
2023-08-11T06:15:04.619Z,61.18
2023-08-11T06:17:32.900Z,61.38
2023-08-11T06:20:02.474Z,61.48
2023-08-11T06:22:30.508Z,61.58
2023-08-11T06:24:59.924Z,61.73
2023-08-11T06:27:28.417Z,61.71
2023-08-11T06:29:56.448Z,61.78
2023-08-11T06:32:24.443Z,61.92
2023-08-11T06:34:52.466Z,61.94
2023-08-11T06:37:20.680Z,62.33
2023-08-11T06:39:48.699Z,62.58
2023-08-11T06:42:16.715Z,61.99
2023-08-11T06:44:49.813Z,61.48
2023-08-11T06:47:17.994Z,61.26
2023-08-11T06:49:46.405Z,60.81
2023-08-11T06:52:14.526Z,60.10
2023-08-11T06:54:42.577Z,58.76
2023-08-11T06:57:11.140Z,57.98
2023-08-11T06:59:39.684Z,58.02
2023-08-11T07:02:07.717Z,58.00
2023-08-11T07:04:35.852Z,57.75
2023-08-11T07:07:04.130Z,57.35
2023-08-11T07:09:32.761Z,57.43
2023-08-11T07:12:01.301Z,57.69
2023-08-11T07:14:29.365Z,57.85
2023-08-11T07:16:57.465Z,57.77
2023-08-11T07:19:25.606Z,57.83
2023-08-11T07:21:53.752Z,57.83
2023-08-11T07:24:21.858Z,57.83
2023-08-11T07:26:49.886Z,57.88
2023-08-11T07:29:17.949Z,57.79
2023-08-11T07:31:46.032Z,57.55
2023-08-11T07:34:14.066Z,57.26
2023-08-11T07:36:42.112Z,57.33
2023-08-11T07:39:22.001Z,57.25
2023-08-11T07:41:52.047Z,56.95
2023-08-11T07:44:20.579Z,56.56
2023-08-11T07:46:48.729Z,56.02
2023-08-11T07:49:16.851Z,55.81
2023-08-11T07:51:45.048Z,55.63
2023-08-11T07:54:14.513Z,55.75
2023-08-11T07:56:42.704Z,56.05
2023-08-11T07:59:11.167Z,55.60
2023-08-11T08:01:39.296Z,55.53
2023-08-11T08:04:07.485Z,55.63
2023-08-11T08:06:37.925Z,55.88
2023-08-11T08:09:10.726Z,55.65
2023-08-11T08:11:40.037Z,55.22
2023-08-11T08:14:08.062Z,55.00
2023-08-11T08:16:36.065Z,54.78
2023-08-11T08:19:06.155Z,54.42
2023-08-11T08:21:34.524Z,54.38
2023-08-11T08:24:05.344Z,53.48
2023-08-11T08:26:33.770Z,52.32
2023-08-11T08:29:02.136Z,51.88
2023-08-11T08:31:30.704Z,51.85
2023-08-11T08:33:59.278Z,51.86
2023-08-11T08:36:27.573Z,52.06
2023-08-11T08:38:55.618Z,52.15
2023-08-11T08:41:29.144Z,52.27
2023-08-11T08:43:58.161Z,52.41
2023-08-11T08:46:31.970Z,52.73
2023-08-11T08:49:24.557Z,52.79
2023-08-11T08:51:54.345Z,52.76
2023-08-11T08:54:22.557Z,52.72
2023-08-11T08:56:53.385Z,52.41
2023-08-11T08:59:22.967Z,52.56
2023-08-11T09:01:51.521Z,52.18
2023-08-11T09:04:21.962Z,52.18
2023-08-11T09:06:52.231Z,52.18
2023-08-11T09:09:24.800Z,51.60
2023-08-11T09:11:53.256Z,51.22
2023-08-11T09:14:23.052Z,51.07
2023-08-11T09:16:53.674Z,51.19
2023-08-11T09:19:22.310Z,51.04
2023-08-11T09:21:50.395Z,50.89
2023-08-11T09:24:18.634Z,50.70
2023-08-11T09:26:51.613Z,50.37
2023-08-11T09:29:21.150Z,50.23
2023-08-11T09:31:54.407Z,50.26
2023-08-11T09:34:23.294Z,50.14
2023-08-11T09:36:52.128Z,49.90
2023-08-11T09:39:21.891Z,49.63
2023-08-11T09:41:50.095Z,49.95
2023-08-11T09:44:19.917Z,49.61
2023-08-11T09:46:50.988Z,49.47
2023-08-11T09:49:19.758Z,49.59
2023-08-11T09:51:50.542Z,49.78
2023-08-11T09:54:19.848Z,49.86
2023-08-11T09:56:51.632Z,50.17
2023-08-11T09:59:21.051Z,50.57
2023-08-11T10:01:54.321Z,50.68
2023-08-11T10:04:29.926Z,50.35
2023-08-11T10:07:04.407Z,50.28
2023-08-11T10:09:35.421Z,50.10
2023-08-11T10:12:06.141Z,50.12
2023-08-11T10:14:36.335Z,50.19
2023-08-11T10:17:05.240Z,50.50
2023-08-11T10:19:34.529Z,50.59
2023-08-11T10:22:03.590Z,50.89
2023-08-11T10:24:32.002Z,51.19
2023-08-11T10:27:00.333Z,51.24
2023-08-11T10:29:29.834Z,51.07
2023-08-11T10:31:59.674Z,51.13
2023-08-11T10:34:28.366Z,51.27
2023-08-11T10:36:58.637Z,51.27
2023-08-11T10:39:27.486Z,51.07
2023-08-11T10:41:58.521Z,51.09
2023-08-11T10:44:30.782Z,51.17
2023-08-11T10:47:02.613Z,51.31
2023-08-11T10:49:43.112Z,50.50
2023-08-11T10:52:12.677Z,50.65
2023-08-11T10:54:50.998Z,50.12
2023-08-11T10:57:19.203Z,49.84
2023-08-11T10:59:47.282Z,49.36
2023-08-11T11:02:15.652Z,49.24
2023-08-11T11:04:45.463Z,49.24
2023-08-11T11:07:15.512Z,49.31
2023-08-11T11:09:43.654Z,49.57
2023-08-11T11:12:12.202Z,49.94
2023-08-11T11:14:40.892Z,50.09
2023-08-11T11:17:09.057Z,50.02
2023-08-11T11:19:37.302Z,49.97
2023-08-11T11:22:07.869Z,50.09
2023-08-11T11:24:38.750Z,50.50
2023-08-11T11:27:07.370Z,50.56
2023-08-11T11:29:38.491Z,50.35
2023-08-11T11:32:08.349Z,50.36
2023-08-11T11:34:38.752Z,50.41
2023-08-11T11:37:06.907Z,50.37
2023-08-11T11:39:35.011Z,49.79
2023-08-11T11:42:08.099Z,49.46
2023-08-11T11:44:37.084Z,49.43
2023-08-11T11:47:06.221Z,49.34
2023-08-11T11:49:34.250Z,49.40
2023-08-11T11:52:03.013Z,49.46
2023-08-11T11:54:32.081Z,49.77
2023-08-11T11:57:04.974Z,50.00
2023-08-11T11:59:34.936Z,50.20
2023-08-11T12:02:03.308Z,50.46
2023-08-11T12:04:31.776Z,50.69
2023-08-11T12:07:00.244Z,50.83
2023-08-11T12:09:29.853Z,51.06
2023-08-11T12:11:58.293Z,50.91
2023-08-11T12:14:27.840Z,50.54
2023-08-11T12:16:56.636Z,50.81
2023-08-11T12:19:24.765Z,50.87
2023-08-11T12:21:53.429Z,51.24
2023-08-11T12:24:22.543Z,50.98
2023-08-11T12:26:50.809Z,50.67
2023-08-11T12:29:18.857Z,50.82
2023-08-11T12:31:46.997Z,51.68
2023-08-11T12:34:15.161Z,52.94
2023-08-11T12:36:43.269Z,53.62
2023-08-11T12:39:11.398Z,53.93
2023-08-11T12:41:40.167Z,54.13
2023-08-11T12:44:08.287Z,54.16
2023-08-11T12:46:37.516Z,53.66
2023-08-11T12:49:05.920Z,53.45
2023-08-11T12:51:34.108Z,53.81
2023-08-11T12:54:02.132Z,53.79
2023-08-11T12:56:30.230Z,53.68
2023-08-11T12:58:58.360Z,53.46
2023-08-11T13:01:30.164Z,53.88
2023-08-11T13:04:00.503Z,53.95
2023-08-11T13:06:28.658Z,54.33
2023-08-11T13:08:56.753Z,54.93
2023-08-11T13:11:24.822Z,55.45
2023-08-11T13:13:52.839Z,55.79
2023-08-11T13:16:20.916Z,56.14
2023-08-11T13:18:48.908Z,56.19
2023-08-11T13:21:18.141Z,56.26
2023-08-11T13:23:46.275Z,56.31
2023-08-11T13:26:14.624Z,56.28
2023-08-11T13:28:42.751Z,56.32
2023-08-11T13:31:10.836Z,56.30
2023-08-11T13:33:39.198Z,56.32
2023-08-11T13:36:07.281Z,56.52
2023-08-11T13:38:35.679Z,56.91
2023-08-11T13:41:03.877Z,56.89
2023-08-11T13:43:35.921Z,56.90
2023-08-11T13:46:04.277Z,56.95
2023-08-11T13:48:32.418Z,56.91
2023-08-11T13:51:00.776Z,56.96
2023-08-11T13:53:28.817Z,56.62
2023-08-11T13:55:56.817Z,56.38
2023-08-11T13:58:25.020Z,56.41
2023-08-11T14:00:53.571Z,56.38
2023-08-11T14:03:21.606Z,56.28
2023-08-11T14:05:49.602Z,56.35
2023-08-11T14:08:17.905Z,56.26
2023-08-11T14:10:45.999Z,56.30
2023-08-11T14:13:14.095Z,56.25
2023-08-11T14:15:42.591Z,56.30
2023-08-11T14:18:10.734Z,56.15
2023-08-11T14:20:38.772Z,56.04
2023-08-11T14:23:07.056Z,56.17
2023-08-11T14:25:35.103Z,55.81
2023-08-11T14:28:03.930Z,55.15
2023-08-11T14:30:32.722Z,54.71
2023-08-11T14:33:01.257Z,54.43
2023-08-11T14:35:29.396Z,54.27
2023-08-11T14:37:59.106Z,54.44
2023-08-11T14:40:27.122Z,54.14
2023-08-11T14:42:55.272Z,54.15
2023-08-11T14:45:23.330Z,53.99
2023-08-11T14:47:51.524Z,53.24
2023-08-11T14:50:19.790Z,53.06
2023-08-11T14:52:47.914Z,52.86
2023-08-11T14:55:16.834Z,52.29
2023-08-11T14:57:45.543Z,51.88
2023-08-11T15:00:14.783Z,51.84
2023-08-11T15:02:43.114Z,51.54
2023-08-11T15:05:11.450Z,51.20
2023-08-11T15:07:39.491Z,51.20
2023-08-11T15:10:08.589Z,50.95
2023-08-11T15:12:36.710Z,50.65
2023-08-11T15:15:05.975Z,50.51
2023-08-11T15:17:34.101Z,50.31
2023-08-11T15:20:02.238Z,50.13
2023-08-11T15:22:30.357Z,49.96
2023-08-11T15:25:02.339Z,49.92
2023-08-11T15:27:30.557Z,50.05
2023-08-11T15:29:59.186Z,49.89
2023-08-11T15:32:27.319Z,49.97
2023-08-11T15:34:55.374Z,50.06
2023-08-11T15:37:23.497Z,50.01
2023-08-11T15:39:51.854Z,49.41
2023-08-11T15:42:19.930Z,48.85
2023-08-11T15:44:49.006Z,48.88
2023-08-11T15:47:17.043Z,49.12
2023-08-11T15:49:45.100Z,49.08
2023-08-11T15:52:13.306Z,49.16
2023-08-11T15:54:41.480Z,49.11
2023-08-11T15:57:09.624Z,48.87
2023-08-11T15:59:37.634Z,48.53
2023-08-11T16:02:10.582Z,48.61
2023-08-11T16:04:39.450Z,48.51
2023-08-11T16:07:07.504Z,48.18
2023-08-11T16:09:35.645Z,47.82
2023-08-11T16:12:03.990Z,47.40
2023-08-11T16:14:32.473Z,47.19
2023-08-11T16:17:00.773Z,47.14
2023-08-11T16:19:28.918Z,47.10
2023-08-11T16:21:57.122Z,47.21
2023-08-11T16:24:25.234Z,47.40
2023-08-11T16:26:53.573Z,47.38
2023-08-11T16:29:21.676Z,47.86
2023-08-11T16:31:50.088Z,48.20
2023-08-11T16:34:18.257Z,48.42
2023-08-11T16:36:46.308Z,48.83
2023-08-11T16:39:15.090Z,48.97
2023-08-11T16:41:43.150Z,49.09
2023-08-11T16:44:11.734Z,49.07
2023-08-11T16:46:40.228Z,49.00
2023-08-11T16:49:08.500Z,48.91
2023-08-11T16:51:36.576Z,48.93
2023-08-11T16:54:05.067Z,48.85
2023-08-11T16:56:33.134Z,49.08
2023-08-11T16:59:01.756Z,49.21
2023-08-11T17:01:29.862Z,49.45
2023-08-11T17:03:58.089Z,49.81
2023-08-11T17:06:26.329Z,49.92
2023-08-11T17:08:54.582Z,50.36
2023-08-11T17:11:22.631Z,50.62
2023-08-11T17:13:51.137Z,50.77
2023-08-11T17:16:20.322Z,51.05
2023-08-11T17:18:50.943Z,51.36
2023-08-11T17:21:20.148Z,51.71
2023-08-11T17:23:48.974Z,51.96
2023-08-11T17:26:17.085Z,52.29
2023-08-11T17:28:45.326Z,52.62
2023-08-11T17:31:13.489Z,52.85
2023-08-11T17:33:41.569Z,53.01
2023-08-11T17:36:10.045Z,53.16
2023-08-11T17:38:38.098Z,53.23
2023-08-11T17:41:06.801Z,53.28
2023-08-11T17:43:34.884Z,53.26
2023-08-11T17:46:03.167Z,53.27
2023-08-11T17:48:31.356Z,53.23
2023-08-11T17:50:59.501Z,53.24
2023-08-11T17:53:27.661Z,53.16
2023-08-11T17:55:55.770Z,53.17
2023-08-11T17:58:23.882Z,53.00
2023-08-11T18:00:52.005Z,52.92
2023-08-11T18:03:20.201Z,53.11
2023-08-11T18:05:48.441Z,53.26
2023-08-11T18:08:16.580Z,53.57
2023-08-11T18:10:44.675Z,53.85
2023-08-11T18:13:12.842Z,54.08
2023-08-11T18:15:41.993Z,54.39
2023-08-11T18:18:10.129Z,54.53
2023-08-11T18:20:38.246Z,54.61
2023-08-11T18:23:06.488Z,54.81
2023-08-11T18:25:36.400Z,55.02
2023-08-11T18:28:05.106Z,55.29
2023-08-11T18:30:33.239Z,55.55
2023-08-11T18:33:01.441Z,55.82
2023-08-11T18:35:29.778Z,56.00
2023-08-11T18:37:58.042Z,56.22
2023-08-11T18:40:27.241Z,56.54
2023-08-11T18:42:55.534Z,57.01
2023-08-11T18:45:23.792Z,57.32
2023-08-11T18:47:54.431Z,57.38
2023-08-11T18:50:22.535Z,57.54
2023-08-11T18:52:51.425Z,57.95
2023-08-11T18:55:19.419Z,58.43
2023-08-11T18:57:47.557Z,58.79
2023-08-11T19:00:16.315Z,59.06
2023-08-11T19:02:44.660Z,59.35
2023-08-11T19:05:12.931Z,59.53
2023-08-11T19:07:41.103Z,59.75
2023-08-11T19:10:09.487Z,60.09
2023-08-11T19:12:37.915Z,60.36
2023-08-11T19:15:06.838Z,60.61
2023-08-11T19:17:35.172Z,60.82
2023-08-11T19:20:03.900Z,61.16
2023-08-11T19:22:32.071Z,61.52
2023-08-11T19:25:00.239Z,61.83
2023-08-11T19:27:28.826Z,62.51
2023-08-11T19:29:56.926Z,63.07
2023-08-11T19:32:24.989Z,63.10
2023-08-11T19:34:53.110Z,62.75
2023-08-11T19:37:21.125Z,62.35
2023-08-11T19:39:49.277Z,62.46
2023-08-11T19:42:17.315Z,62.41
2023-08-11T19:44:45.891Z,62.01
2023-08-11T19:48:53.659Z,61.49
2023-08-11T19:51:54.410Z,61.63
2023-08-11T19:55:44.241Z,61.52
2023-08-11T19:59:18.921Z,61.28
2023-08-11T20:03:12.608Z,61.43
2023-08-11T20:06:31.139Z,61.47
2023-08-11T20:09:11.925Z,61.30
2023-08-11T20:12:28.554Z,61.18
2023-08-11T20:16:05.725Z,61.40
2023-08-11T20:19:11.416Z,61.43
2023-08-11T20:22:48.722Z,61.35
2023-08-11T20:25:50.775Z,61.50
2023-08-11T20:28:48.148Z,61.61
2023-08-11T20:31:47.064Z,61.69
2023-08-11T20:35:56.584Z,61.85
2023-08-11T20:39:45.923Z,62.03
2023-08-11T20:43:57.430Z,62.16
2023-08-11T20:48:01.618Z,62.26
2023-08-11T20:52:00.559Z,62.50
2023-08-11T20:55:38.791Z,62.65
2023-08-11T20:59:42.572Z,62.79
2023-08-11T21:03:52.240Z,62.94
2023-08-11T21:07:04.159Z,62.97
2023-08-11T21:10:16.093Z,63.04
2023-08-11T21:14:05.457Z,63.04
2023-08-11T21:17:41.131Z,63.13
2023-08-11T21:21:16.089Z,63.23
2023-08-11T21:24:32.977Z,63.28
2023-08-11T21:28:17.605Z,63.34
2023-08-11T21:31:29.310Z,63.29
2023-08-11T21:35:16.889Z,63.21
2023-08-11T21:39:20.081Z,63.12
2023-08-11T21:43:22.583Z,62.97
2023-08-11T21:46:57.492Z,62.89
2023-08-11T21:51:08.764Z,62.82
2023-08-11T21:55:13.420Z,62.79
2023-08-11T21:58:31.323Z,62.71
2023-08-11T22:01:49.359Z,62.67
2023-08-11T22:05:26.043Z,62.60
2023-08-11T22:08:50.585Z,62.62
2023-08-11T22:12:40.996Z,62.56
2023-08-11T22:16:20.281Z,62.55
2023-08-11T22:19:47.436Z,62.51
2023-08-11T22:23:14.075Z,62.49
2023-08-11T22:26:57.325Z,62.48
2023-08-11T22:31:07.032Z,62.50
2023-08-11T22:34:47.101Z,62.53
2023-08-11T22:38:58.017Z,62.55
2023-08-11T22:42:57.329Z,62.51
2023-08-11T22:45:48.727Z,62.47
2023-08-11T22:49:41.084Z,62.37
2023-08-11T22:53:35.427Z,62.42
2023-08-11T22:56:37.241Z,62.42
2023-08-11T23:00:20.070Z,62.38
2023-08-11T23:04:03.829Z,62.30
2023-08-11T23:08:05.987Z,62.22
2023-08-11T23:12:08.377Z,62.01
2023-08-11T23:15:31.133Z,61.83
2023-08-11T23:18:53.494Z,61.57
2023-08-11T23:22:47.254Z,61.59
2023-08-11T23:26:37.542Z,61.47
2023-08-11T23:30:30.326Z,61.23
2023-08-11T23:34:15.280Z,61.02
2023-08-11T23:37:55.579Z,60.86
2023-08-11T23:41:40.654Z,60.63
2023-08-11T23:45:20.096Z,60.68
2023-08-11T23:48:21.447Z,61.62
2023-08-11T23:51:50.842Z,61.95
2023-08-11T23:55:40.016Z,62.10
2023-08-11T23:58:59.278Z,61.89
